createdAt,value
2022-11-25T00:19:45.266Z,5.01
2022-11-25T00:49:50.644Z,4.52
2022-11-25T01:19:54.768Z,4.57
2022-11-25T01:50:03.095Z,4.55
2022-11-25T02:20:08.809Z,4.76
2022-11-25T02:50:13.907Z,4.96
2022-11-25T03:20:18.671Z,5.24
2022-11-25T03:50:22.877Z,5.55
2022-11-25T04:20:27.404Z,5.84
2022-11-25T04:50:32.643Z,6.13
2022-11-25T05:20:36.792Z,6.33
2022-11-25T05:50:40.947Z,6.25
2022-11-25T06:20:45.340Z,6.39
2022-11-25T06:50:58.646Z,6.58
2022-11-25T07:21:08.015Z,6.26
2022-11-25T07:51:20.303Z,6.20
2022-11-25T08:21:24.778Z,6.56
2022-11-25T08:51:31.099Z,6.71
2022-11-25T09:21:35.362Z,7.41
2022-11-25T09:51:43.194Z,7.46
2022-11-25T10:21:47.733Z,16.76
2022-11-25T10:51:52.165Z,18.54
2022-11-25T11:21:57.375Z,17.43
2022-11-25T11:52:07.721Z,18.72
2022-11-25T12:22:12.464Z,12.43
2022-11-25T12:52:34.499Z,16.06
2022-11-25T13:22:38.863Z,12.23
2022-11-25T13:52:44.873Z,11.23
2022-11-25T14:23:24.185Z,10.42
2022-11-25T14:53:29.283Z,9.83
2022-11-25T15:23:37.781Z,9.46
2022-11-25T15:53:44.121Z,8.99
2022-11-25T16:23:50.231Z,8.72
2022-11-25T16:53:54.562Z,8.64
2022-11-25T17:24:02.634Z,8.65
2022-11-25T17:54:06.900Z,8.53
2022-11-25T18:24:11.250Z,8.31
2022-11-25T18:54:15.566Z,8.24
2022-11-25T19:24:19.849Z,7.93
2022-11-25T19:54:24.113Z,7.80
2022-11-25T20:24:28.419Z,7.37
2022-11-25T20:54:35.887Z,6.98
2022-11-25T21:24:42.665Z,6.84
2022-11-25T21:54:47.087Z,6.74
2022-11-25T22:24:51.474Z,6.90
2022-11-25T22:54:56.018Z,7.08
2022-11-25T23:25:00.164Z,6.72
2022-11-25T23:55:04.983Z,6.32
